Time;durP1;ratioP1;P1;durP2;ratioP2;P2;SDS_P1;SDS_P2;PMS_P1;PMS_P2;Temp;Humidity;BMP_temperature;BMP_pressure;BME280_temperature;BME280_humidity;BME280_pressure;Samples;Min_cycle;Max_cycle;Signal;HPM_P1;HPM_P2
2021/09/19 00:00:11;;;;;;;1.25;0.50;;;;;;;14.26;69.61;99459.17;1700123;83;21350;-51
2021/09/19 00:02:37;;;;;;;0.80;0.40;;;;;;;14.23;69.77;99456.95;1700793;83;21057;-51
2021/09/19 00:05:07;;;;;;;1.03;0.67;;;;;;;14.28;69.85;99456.23;1696028;84;21065;-51
2021/09/19 00:07:33;;;;;;;1.10;0.50;;;;;;;14.36;69.56;99462.07;1701167;84;20985;-51
2021/09/19 00:10:00;;;;;;;1.22;0.40;;;;;;;14.39;69.57;99460.27;1704189;84;20998;-50
2021/09/19 00:12:27;;;;;;;0.70;0.60;;;;;;;14.36;69.62;99459.39;1704609;83;21028;-50
2021/09/19 00:14:54;;;;;;;3.90;2.00;;;;;;;14.36;69.51;99463.95;1700857;84;21023;-50
2021/09/19 00:17:20;;;;;;;1.00;0.85;;;;;;;14.33;69.60;99463.88;1702039;83;20997;-51
2021/09/19 00:19:48;;;;;;;0.65;0.65;;;;;;;14.31;69.51;99463.83;1704324;84;21518;-49
2021/09/19 00:22:15;;;;;;;0.53;0.53;;;;;;;14.33;69.60;99465.20;1701955;84;20993;-50
2021/09/19 00:24:41;;;;;;;2.22;0.60;;;;;;;14.39;69.55;99468.82;1690504;84;21013;-49
2021/09/19 00:27:09;;;;;;;0.60;0.60;;;;;;;14.41;69.49;99459.52;1705805;84;20997;-50
2021/09/19 00:29:35;;;;;;;0.72;0.72;;;;;;;14.38;69.68;99461.84;1689488;84;21052;-50
2021/09/19 00:32:02;;;;;;;0.93;0.85;;;;;;;14.35;69.77;99456.94;1695425;84;21056;-51
2021/09/19 00:34:29;;;;;;;0.70;0.70;;;;;;;14.34;69.97;99455.33;1641086;86;21172;-50
2021/09/19 00:36:55;;;;;;;;;;;;;;;14.31;70.05;99453.10;1716944;82;21544;-50
2021/09/19 00:39:22;;;;;;;1.30;0.75;;;;;;;14.32;70.02;99454.75;1710739;82;20531;-50
2021/09/19 00:41:48;;;;;;;0.85;0.85;;;;;;;14.31;70.06;99452.57;1703669;82;21512;-51
2021/09/19 00:44:15;;;;;;;1.62;1.00;;;;;;;14.31;70.05;99455.25;1704789;82;21098;-50
2021/09/19 00:46:43;;;;;;;1.35;1.02;;;;;;;14.27;70.11;99457.30;1706087;82;21133;-51
2021/09/19 00:49:11;;;;;;;1.27;0.88;;;;;;;14.23;70.38;99456.95;1709413;82;21023;-52
2021/09/19 00:51:37;;;;;;;2.45;1.30;;;;;;;14.23;70.43;99465.53;1709350;82;21115;-50
2021/09/19 00:54:06;;;;;;;1.10;1.00;;;;;;;14.24;70.61;99464.46;1708715;82;21572;-50
2021/09/19 00:56:35;;;;;;;1.57;0.62;;;;;;;14.25;70.55;99463.42;1712301;82;21098;-51
2021/09/19 00:59:02;;;;;;;0.62;0.62;;;;;;;14.30;70.85;99470.25;1707236;83;21029;-50
2021/09/19 01:01:30;;;;;;;2.08;0.60;;;;;;;14.30;71.26;99467.57;1706512;83;21049;-49
2021/09/19 01:03:59;;;;;;;0.70;0.62;;;;;;;14.27;71.56;99468.83;1718818;83;20947;-50
2021/09/19 01:06:28;;;;;;;1.27;0.95;;;;;;;14.22;72.87;99471.39;1669579;86;21024;-51
2021/09/19 01:08:57;;;;;;;2.95;1.07;;;;;;;14.14;73.60;99469.07;1702141;83;20947;-52
2021/09/19 01:11:25;;;;;;;0.82;0.82;;;;;;;14.14;74.19;99469.07;1707607;83;22213;-51
2021/09/19 01:13:51;;;;;;;2.87;0.95;;;;;;;14.17;74.63;99474.78;1657695;84;21084;-51
2021/09/19 01:16:19;;;;;;;1.52;0.98;;;;;;;14.17;75.28;99472.10;1665802;84;21029;-51
2021/09/19 01:18:48;;;;;;;2.67;1.00;;;;;;;14.14;75.72;99469.07;1704267;82;21057;-50
2021/09/19 01:21:17;;;;;;;1.22;1.12;;;;;;;14.12;75.88;99470.64;1697741;82;21170;-51
2021/09/19 01:24:00;;;;;;;0.57;0.53;;;;;;;14.09;76.48;99468.44;1702881;82;21621;-51
2021/09/19 01:26:28;;;;;;;2.50;0.98;;;;;;;14.05;76.56;99469.93;1705160;82;21735;-50
2021/09/19 01:28:56;;;;;;;1.57;1.00;;;;;;;14.04;76.94;99472.34;1699550;82;20983;-49
2021/09/19 01:31:24;;;;;;;2.92;1.12;;;;;;;14.07;76.98;99473.22;1686304;82;21082;-50
2021/09/19 01:33:52;;;;;;;1.35;1.22;;;;;;;14.11;77.24;99471.70;1715007;82;21079;-49
2021/09/19 01:36:18;;;;;;;1.10;1.00;;;;;;;14.09;77.15;99469.78;1735493;81;20991;-51
2021/09/19 01:38:46;;;;;;;1.47;1.12;;;;;;;14.02;77.34;99465.86;1724499;81;21082;-50
2021/09/19 01:41:20;;;;;;;1.32;1.30;;;;;;;13.96;77.94;99463.31;1727579;81;21047;-51
2021/09/19 01:43:48;;;;;;;3.10;1.00;;;;;;;13.95;78.19;99461.66;1732724;81;21026;-51
2021/09/19 01:46:15;;;;;;;0.40;0.40;;;;;;;13.98;78.06;99459.87;1702804;82;21035;-51
2021/09/19 01:48:41;;;;;;;0.60;0.60;;;;;;;14.02;77.83;99459.16;1702595;82;21189;-50
2021/09/19 01:51:09;;;;;;;3.35;0.93;;;;;;;13.98;77.15;99454.52;1701966;82;21001;-51
2021/09/19 01:53:39;;;;;;;1.00;1.00;;;;;;;13.87;77.26;99447.28;1703758;82;21056;-50
2021/09/19 01:56:07;;;;;;;1.95;0.85;;;;;;;13.80;77.43;99452.20;1690562;82;21060;-50
2021/09/19 01:58:49;;;;;;;2.40;1.12;;;;;;;13.80;77.59;99455.41;1685740;84;22346;-51
2021/09/19 02:01:17;;;;;;;0.70;0.70;;;;;;;13.79;77.25;99448.45;1692622;84;21619;-51
2021/09/19 02:03:43;;;;;;;0.70;0.70;;;;;;;13.79;77.63;99456.48;1699087;84;21459;-50
2021/09/19 02:06:12;;;;;;;1.30;0.85;;;;;;;13.75;77.76;99456.12;1705338;84;21045;-50
2021/09/19 02:08:38;;;;;;;0.82;0.82;;;;;;;13.69;77.88;99459.70;1656844;84;21055;-51
2021/09/19 02:11:09;;;;;;;1.02;1.02;;;;;;;13.63;77.85;99456.61;1699972;84;21187;-50
2021/09/19 02:13:39;;;;;;;2.15;0.90;;;;;;;13.61;77.92;99456.84;1699503;83;22419;-50
2021/09/19 02:16:07;;;;;;;0.50;0.50;;;;;;;13.66;77.92;99449.47;1702012;84;20970;-51
2021/09/19 02:18:36;;;;;;;1.02;0.70;;;;;;;13.68;77.97;99457.28;1701729;84;21056;-49
2021/09/19 02:21:07;;;;;;;1.10;1.00;;;;;;;13.70;78.14;99449.30;1668159;84;20960;-49
2021/09/19 02:23:33;;;;;;;1.02;1.00;;;;;;;13.73;78.25;99447.50;1701693;84;21040;-51
2021/09/19 02:25:59;;;;;;;0.95;0.90;;;;;;;13.71;78.45;99445.58;1699098;84;21570;-50
2021/09/19 02:28:26;;;;;;;1.92;1.00;;;;;;;13.70;78.51;99449.30;1696502;84;21036;-51
2021/09/19 02:30:52;;;;;;;1.25;1.07;;;;;;;13.73;78.56;99446.67;1704027;84;21091;-49
2021/09/19 02:33:20;;;;;;;1.00;0.75;;;;;;;13.79;78.33;99446.58;1702440;84;21029;-50
2021/09/19 02:35:49;;;;;;;0.78;0.60;;;;;;;13.82;78.17;99451.98;1695185;83;21055;-52
2021/09/19 02:38:15;;;;;;;6.67;1.15;;;;;;;13.80;78.08;99452.20;1702999;82;21600;-50
2021/09/19 02:40:43;;;;;;;0.57;0.57;;;;;;;13.75;78.26;99448.09;1699128;83;21117;-49
2021/09/19 02:43:09;;;;;;;1.10;1.00;;;;;;;13.68;77.99;99454.59;1706292;83;21011;-51
2021/09/19 02:45:36;;;;;;;1.12;0.90;;;;;;;13.63;77.91;99454.73;1699624;84;21052;-51
2021/09/19 02:48:04;;;;;;;0.70;0.65;;;;;;;13.67;77.98;99448.41;1703307;83;21082;-51
2021/09/19 02:50:30;;;;;;;0.90;0.72;;;;;;;13.66;77.74;99452.67;1696458;83;21133;-50
2021/09/19 02:52:56;;;;;;;;;;;;;;;13.61;78.00;99448.80;1703254;84;21029;-50
2021/09/19 02:55:23;;;;;;;0.53;0.50;;;;;;;13.54;78.20;99451.30;1705451;82;20157;-50
2021/09/19 02:57:49;;;;;;;2.30;0.68;;;;;;;13.41;78.31;99453.14;1699733;84;21089;-50
2021/09/19 03:00:20;;;;;;;2.52;0.40;;;;;;;13.38;78.29;99453.58;1668793;84;21057;-50
2021/09/19 03:02:48;;;;;;;0.82;0.82;;;;;;;13.40;78.25;99456.84;1710978;82;21008;-50
2021/09/19 03:05:16;;;;;;;1.42;0.68;;;;;;;13.43;78.37;99455.06;1667009;84;21028;-50
2021/09/19 03:07:43;;;;;;;0.50;0.50;;;;;;;13.46;78.29;99452.97;1671462;84;21286;-50
2021/09/19 03:10:12;;;;;;;0.80;0.80;;;;;;;13.48;78.47;99450.88;1700556;82;21079;-50
2021/09/19 03:12:39;;;;;;;0.62;0.42;;;;;;;13.48;78.49;99453.02;1706508;80;21024;-50
2021/09/19 03:15:07;;;;;;;3.98;1.10;;;;;;;13.44;78.67;99448.64;1711173;82;21004;-50
2021/09/19 03:17:34;;;;;;;0.50;0.50;;;;;;;13.47;78.85;99447.89;1710841;82;20973;-50
2021/09/19 03:20:04;;;;;;;0.70;0.70;;;;;;;13.52;78.73;99447.50;1713292;82;21610;-50
2021/09/19 03:22:31;;;;;;;0.70;0.50;;;;;;;13.58;78.78;99449.78;1709484;82;21522;-50
2021/09/19 03:24:59;;;;;;;0.90;0.42;;;;;;;13.58;79.10;99453.30;1710320;82;21135;-50
2021/09/19 03:27:27;;;;;;;0.78;0.68;;;;;;;13.56;79.56;99451.38;1707339;82;21567;-49
2021/09/19 03:29:55;;;;;;;2.35;0.72;;;;;;;13.55;80.05;99452.41;1709959;82;21025;-51
2021/09/19 03:32:21;;;;;;;0.47;0.47;;;;;;;13.56;80.21;99453.21;1708171;82;21091;-49
2021/09/19 03:34:48;;;;;;;2.50;0.40;;;;;;;13.58;80.36;99452.45;1655822;84;21507;-50
2021/09/19 03:37:16;;;;;;;1.02;0.68;;;;;;;13.56;80.80;99452.71;1706704;82;22178;-50
2021/09/19 03:39:43;;;;;;;0.68;0.60;;;;;;;13.54;81.10;99455.31;1710711;82;21039;-50
2021/09/19 03:42:11;;;;;;;1.05;0.90;;;;;;;13.53;80.95;99455.03;1711159;82;21031;-49
2021/09/19 03:44:38;;;;;;;1.32;0.60;;;;;;;13.49;80.61;99458.69;1711068;83;21034;-50
2021/09/19 03:47:04;;;;;;;1.55;1.45;;;;;;;13.45;80.54;99460.19;1671718;84;21048;-50
2021/09/19 03:49:32;;;;;;;0.70;0.70;;;;;;;13.44;80.90;99459.35;1671014;84;21080;-50
2021/09/19 03:51:59;;;;;;;3.85;1.07;;;;;;;13.49;81.00;99463.23;1708861;82;21070;-50
2021/09/19 03:54:27;;;;;;;0.50;0.50;;;;;;;13.48;81.33;99463.73;1715028;82;21034;-51
2021/09/19 03:56:53;;;;;;;0.40;0.40;;;;;;;13.46;81.41;99466.35;1651678;83;21048;-51
2021/09/19 03:59:21;;;;;;;0.53;0.53;;;;;;;13.40;81.56;99461.39;1686420;83;21063;-51
2021/09/19 04:01:49;;;;;;;1.37;0.60;;;;;;;13.30;82.10;99462.41;1668276;83;21561;-52
2021/09/19 04:04:15;;;;;;;2.30;0.68;;;;;;;13.25;82.58;99468.46;1697808;83;21067;-51
2021/09/19 04:06:43;;;;;;;1.00;0.75;;;;;;;13.27;82.89;99457.53;1667883;84;21621;-51
2021/09/19 04:09:11;;;;;;;1.12;0.55;;;;;;;13.28;83.29;99457.31;1711943;83;21027;-51
2021/09/19 04:11:38;;;;;;;0.78;0.68;;;;;;;13.29;83.12;99455.45;1690874;82;21611;-51
2021/09/19 04:14:04;;;;;;;1.45;1.35;;;;;;;13.30;82.99;99465.95;1665944;86;21087;-51
2021/09/19 04:16:31;;;;;;;1.12;0.75;;;;;;;13.28;82.61;99462.66;1709919;83;21087;-50
2021/09/19 04:18:58;;;;;;;1.67;0.95;;;;;;;13.27;82.39;99461.55;1670600;84;21086;-50
2021/09/19 04:21:25;;;;;;;0.70;0.70;;;;;;;13.28;82.28;99464.50;1698365;83;21038;-50
2021/09/19 04:23:53;;;;;;;0.60;0.55;;;;;;;13.33;82.38;99462.81;1709480;82;20955;-49
2021/09/19 04:26:19;;;;;;;1.32;1.00;;;;;;;13.38;82.18;99470.17;1711010;82;21184;-51
2021/09/19 04:28:47;;;;;;;1.32;1.10;;;;;;;13.40;82.00;99468.89;1711799;82;21242;-52
2021/09/19 04:31:15;;;;;;;1.85;0.80;;;;;;;13.42;82.25;99468.14;1702204;82;21091;-50
2021/09/19 04:33:43;;;;;;;2.83;1.22;;;;;;;13.37;82.49;99455.98;1666952;81;21178;-50
2021/09/19 04:36:09;;;;;;;3.67;1.40;;;;;;;13.48;82.56;99468.28;1708804;82;21667;-51
2021/09/19 04:38:37;;;;;;;1.90;0.80;;;;;;;13.50;82.13;99468.33;1671248;84;21549;-51
2021/09/19 04:41:03;;;;;;;5.70;2.05;;;;;;;13.51;82.02;99478.54;1671724;84;21011;-51
2021/09/19 04:43:30;;;;;;;1.67;1.57;;;;;;;13.48;82.04;99467.75;1703508;82;21612;-51
2021/09/19 04:45:56;;;;;;;1.47;1.37;;;;;;;13.46;82.30;99463.67;1702830;82;21093;-52
2021/09/19 04:48:23;;;;;;;1.65;1.55;;;;;;;13.40;82.44;99462.20;1702682;82;21149;-51
2021/09/19 04:50:49;;;;;;;3.85;1.62;;;;;;;13.37;82.76;99459.16;1691699;82;21030;-56
2021/09/19 04:53:16;;;;;;;2.45;1.95;;;;;;;13.37;82.84;99457.32;1700596;82;21042;-51
2021/09/19 04:55:42;;;;;;;5.87;2.90;;;;;;;13.36;83.22;99461.03;1671475;83;21049;-50
2021/09/19 04:58:09;;;;;;;2.45;2.17;;;;;;;13.34;83.30;99457.77;1703789;82;21109;-51
2021/09/19 05:00:35;;;;;;;2.08;1.95;;;;;;;13.34;83.51;99466.33;1699917;82;21043;-52
2021/09/19 05:03:03;;;;;;;2.33;1.62;;;;;;;13.36;83.79;99467.72;1702196;82;21053;-57
2021/09/19 05:05:30;;;;;;;3.10;2.50;;;;;;;13.43;83.82;99470.31;1656303;84;21023;-54
2021/09/19 05:07:56;;;;;;;2.17;2.08;;;;;;;13.46;83.65;99464.48;1657061;84;21054;-54
2021/09/19 05:10:23;;;;;;;;;;;;;;;13.48;83.88;99461.59;1701059;82;21062;-56
2021/09/19 05:12:49;;;;;;;3.05;2.75;;;;;;;13.50;84.09;99463.51;1720774;82;20146;-55
2021/09/19 05:15:15;;;;;;;;;;;;;;;13.50;84.33;99464.31;1705265;82;21097;-54
2021/09/19 05:17:43;;;;;;;2.95;1.72;;;;;;;13.52;84.13;99465.43;1709735;82;20211;-56
2021/09/19 05:20:12;;;;;;;2.20;2.10;;;;;;;13.39;83.05;99463.26;1707370;82;21050;-55
2021/09/19 05:22:40;;;;;;;4.35;2.62;;;;;;;13.27;83.13;99462.89;1671349;82;21024;-55
2021/09/19 05:25:08;;;;;;;2.87;1.87;;;;;;;13.19;83.38;99465.36;1670367;86;21110;-55
2021/09/19 05:27:36;;;;;;;2.58;2.40;;;;;;;13.17;83.58;99460.77;1708376;83;21536;-55
2021/09/19 05:30:04;;;;;;;4.10;2.15;;;;;;;13.17;83.82;99461.57;1711952;83;21138;-56
2021/09/19 05:32:30;;;;;;;2.43;2.23;;;;;;;13.16;84.19;99456.44;1710109;83;21101;-55
2021/09/19 05:34:56;;;;;;;1.85;1.72;;;;;;;13.17;84.09;99466.11;1668931;83;21080;-55
2021/09/19 05:37:22;;;;;;;2.20;1.77;;;;;;;13.11;83.91;99466.50;1708640;83;21043;-55
2021/09/19 05:39:49;;;;;;;1.30;1.25;;;;;;;13.12;84.00;99467.30;1671659;86;21142;-56
2021/09/19 05:42:15;;;;;;;2.60;1.20;;;;;;;13.13;84.12;99471.59;1671544;84;21095;-57
2021/09/19 05:44:41;;;;;;;1.67;1.32;;;;;;;13.14;84.03;99469.23;1708559;82;21057;-55
2021/09/19 05:47:07;;;;;;;0.70;0.70;;;;;;;13.17;84.23;99463.44;1669250;84;21155;-55
2021/09/19 05:49:33;;;;;;;1.40;0.80;;;;;;;13.24;84.25;99466.31;1669354;84;21617;-55
2021/09/19 05:52:01;;;;;;;2.12;0.80;;;;;;;13.29;83.88;99466.95;1708565;82;21027;-55
2021/09/19 05:54:27;;;;;;;0.95;0.40;;;;;;;13.30;83.65;99464.62;1709847;82;21082;-56
2021/09/19 05:56:53;;;;;;;2.58;0.78;;;;;;;13.33;83.58;99468.69;1670445;81;21076;-55
2021/09/19 05:59:20;;;;;;;0.90;0.57;;;;;;;13.34;83.57;99467.13;1709430;83;21508;-55
2021/09/19 06:01:47;;;;;;;1.42;0.72;;;;;;;13.34;83.15;99461.78;1709778;83;21058;-55
2021/09/19 06:04:14;;;;;;;4.60;0.75;;;;;;;13.28;82.63;99467.18;1660334;84;21070;-55
2021/09/19 06:06:40;;;;;;;0.82;0.75;;;;;;;13.21;82.94;99463.27;1671267;84;21111;-56
2021/09/19 06:09:06;;;;;;;3.33;0.88;;;;;;;13.26;83.12;99463.42;1711160;83;21595;-56
2021/09/19 06:11:32;;;;;;;0.60;0.50;;;;;;;13.28;82.67;99460.48;1710152;81;21043;-61
2021/09/19 06:14:00;;;;;;;0.60;0.30;;;;;;;13.24;82.13;99462.80;1671031;85;21127;-57
2021/09/19 06:16:26;;;;;;;;;;;;;;;13.25;81.74;99468.46;1673144;84;21059;-56
2021/09/19 06:18:54;;;;;;;;;;;;;;;13.25;82.14;99465.26;1642716;86;20150;-56
2021/09/19 06:21:21;;;;;;;0.45;0.40;;;;;;;13.19;82.54;99462.69;1683138;85;20475;-56
2021/09/19 06:23:47;;;;;;;0.70;0.70;;;;;;;13.13;82.47;99460.89;1689318;84;21074;-57
2021/09/19 06:26:13;;;;;;;0.53;0.53;;;;;;;13.12;82.61;99459.28;1698071;84;21083;-57
2021/09/19 06:28:41;;;;;;;0.30;0.30;;;;;;;13.13;81.86;99456.88;1698041;84;21069;-56
2021/09/19 06:31:08;;;;;;;0.70;0.28;;;;;;;13.13;81.36;99458.22;1696137;84;21120;-55
2021/09/19 06:33:35;;;;;;;1.17;0.30;;;;;;;13.21;81.40;99452.57;1691507;84;21096;-56
2021/09/19 06:36:03;;;;;;;1.95;0.40;;;;;;;13.29;81.33;99453.58;1643245;86;21021;-56
2021/09/19 06:38:30;;;;;;;2.33;1.10;;;;;;;13.40;81.12;99452.83;1695018;82;21074;-57
2021/09/19 06:40:57;;;;;;;1.32;0.80;;;;;;;13.55;80.93;99456.95;1668895;84;20984;-56
2021/09/19 06:43:24;;;;;;;1.72;0.62;;;;;;;13.68;80.94;99452.73;1670238;84;21024;-57
2021/09/19 06:45:52;;;;;;;1.62;0.47;;;;;;;13.78;81.32;99460.19;1730380;81;21042;-55
2021/09/19 06:48:20;;;;;;;0.95;0.85;;;;;;;13.79;80.36;99454.61;1739320;81;21051;-54
2021/09/19 06:50:46;;;;;;;;;;;;;;;13.70;79.70;99446.61;1738979;81;21090;-56
2021/09/19 06:53:13;;;;;;;0.93;0.40;;;;;;;13.61;80.05;99458.70;1741593;81;20190;-56
2021/09/19 06:55:39;;;;;;;0.57;0.30;;;;;;;13.50;80.91;99456.81;1732875;81;21089;-55
2021/09/19 06:58:05;;;;;;;0.20;0.20;;;;;;;13.42;79.73;99453.41;1734966;81;21106;-57
2021/09/19 07:00:31;;;;;;;2.77;0.20;;;;;;;13.36;79.73;99461.03;1699034;83;21183;-55
2021/09/19 07:02:57;;;;;;;0.50;0.40;;;;;;;13.32;80.33;99450.48;1738333;81;21548;-56
2021/09/19 07:05:24;;;;;;;2.05;0.40;;;;;;;13.30;80.60;99454.38;1738532;81;21051;-57
2021/09/19 07:07:50;;;;;;;0.40;0.20;;;;;;;13.31;80.45;99453.39;1723042;81;21034;-56
2021/09/19 07:11:13;;;;;;;0.20;0.20;;;;;;;13.44;81.02;99443.30;1785015;78;22835;-56
2021/09/19 07:13:40;;;;;;;0.90;0.30;;;;;;;13.49;80.85;99449.84;1651124;85;21044;-55
2021/09/19 07:16:09;;;;;;;1.30;0.20;;;;;;;13.57;80.26;99442.81;1667106;84;21012;-54
2021/09/19 07:18:35;;;;;;;1.50;0.20;;;;;;;13.59;79.72;99448.22;1673434;85;21134;-52
2021/09/19 07:21:22;;;;;;;0.30;0.20;;;;;;;13.63;79.89;99440.55;1671661;83;21089;-49
2021/09/19 07:23:49;;;;;;;0.28;0.15;;;;;;;13.69;79.88;99444.97;1712808;82;21069;-86
2021/09/19 07:26:17;;;;;;;0.40;0.10;;;;;;;13.64;79.28;99448.88;1746600;81;21088;-86
2021/09/19 07:28:44;;;;;;;0.10;0.10;;;;;;;13.56;79.12;99448.70;1750451;80;21045;-86
2021/09/19 07:31:11;;;;;;;0.20;0.15;;;;;;;13.47;79.67;99447.39;1741574;81;21060;-88
2021/09/19 07:33:38;;;;;;;0.30;0.20;;;;;;;13.49;79.12;99452.52;1736718;81;21097;-86
2021/09/19 07:36:08;;;;;;;0.20;0.10;;;;;;;13.48;79.42;99450.88;1742112;81;21069;-88
2021/09/19 07:38:35;;;;;;;0.50;0.10;;;;;;;13.51;79.58;99449.09;1733681;81;21002;-86
2021/09/19 07:41:02;;;;;;;8.08;0.40;;;;;;;13.58;79.80;99447.10;1737093;81;21153;-88
2021/09/19 07:43:28;;;;;;;0.50;0.25;;;;;;;13.66;79.00;99441.44;1737905;81;21018;-87
2021/09/19 07:45:55;;;;;;;0.85;0.33;;;;;;;13.74;79.60;99442.42;1724477;79;21046;-86
2021/09/19 07:48:23;;;;;;;0.62;0.20;;;;;;;13.83;79.64;99440.23;1731256;81;21073;-87
2021/09/19 07:50:52;;;;;;;2.60;0.30;;;;;;;14.00;79.99;99437.68;1681957;84;21326;-88
2021/09/19 07:53:19;;;;;;;0.30;0.30;;;;;;;14.21;79.46;99430.91;1723300;82;21038;-88
2021/09/19 07:55:45;;;;;;;0.50;0.40;;;;;;;14.43;77.60;99430.30;1722946;82;21608;-87
2021/09/19 07:58:11;;;;;;;2.30;0.33;;;;;;;14.57;77.13;99437.87;1706252;83;21122;-86
2021/09/19 08:00:38;;;;;;;1.12;1.12;;;;;;;14.71;75.57;99439.79;1702323;83;21043;-85
2021/09/19 08:03:04;;;;;;;;;;;;;;;14.85;74.73;99436.30;1705263;83;21178;-82
2021/09/19 08:05:30;;;;;;;4.42;3.10;;;;;;;14.91;74.62;99433.19;1697526;83;20177;-83
2021/09/19 08:07:57;;;;;;;2.75;2.58;;;;;;;14.91;75.70;99437.21;1700169;83;21149;-83
2021/09/19 08:10:24;;;;;;;5.58;3.98;;;;;;;14.99;76.55;99437.66;1707134;83;21073;-84
2021/09/19 08:12:52;;;;;;;8.38;4.97;;;;;;;15.12;74.24;99437.06;1716960;81;20992;-88
2021/09/19 08:15:20;;;;;;;7.03;4.90;;;;;;;15.15;74.51;99434.72;1730364;82;21058;-87
2021/09/19 08:17:47;;;;;;;6.05;4.30;;;;;;;15.14;74.92;99439.81;1711587;83;21194;-85
2021/09/19 08:20:17;;;;;;;4.58;4.28;;;;;;;15.14;75.21;99437.13;1710492;83;21019;-85
2021/09/19 08:22:43;;;;;;;5.00;4.70;;;;;;;15.12;75.76;99439.75;1703038;83;21158;-86
2021/09/19 08:25:13;;;;;;;4.47;4.22;;;;;;;15.08;75.59;99441.29;1712420;83;21044;-88
2021/09/19 08:27:42;;;;;;;5.03;4.62;;;;;;;15.06;75.97;99438.84;1712606;83;21138;-86
2021/09/19 08:30:12;;;;;;;5.28;5.00;;;;;;;15.04;76.23;99438.80;1706615;83;21008;-86
2021/09/19 08:32:40;;;;;;;5.05;4.62;;;;;;;14.96;76.71;99434.10;1702709;83;21082;-82
2021/09/19 08:35:11;;;;;;;6.97;6.47;;;;;;;14.94;77.37;99433.53;1708522;83;21606;-83
2021/09/19 08:37:39;;;;;;;5.70;5.30;;;;;;;14.95;76.64;99431.65;1729021;82;21109;-83
2021/09/19 08:40:10;;;;;;;6.50;6.00;;;;;;;14.93;77.15;99433.76;1673738;84;21194;-81
2021/09/19 08:42:38;;;;;;;7.35;6.65;;;;;;;14.88;77.72;99422.42;1665266;84;21554;-90
2021/09/19 08:45:07;;;;;;;6.92;6.42;;;;;;;14.91;77.42;99423.27;1714309;82;21015;-82
2021/09/19 08:47:35;;;;;;;10.70;6.58;;;;;;;14.94;77.46;99427.36;1701077;83;21071;-82
2021/09/19 08:50:06;;;;;;;6.55;6.15;;;;;;;14.97;77.59;99422.33;1713188;82;21584;-83
2021/09/19 08:52:33;;;;;;;7.12;6.55;;;;;;;15.01;77.77;99415.92;1706901;82;21122;-83
2021/09/19 08:54:59;;;;;;;7.28;6.47;;;;;;;15.02;77.32;99419.45;1714845;82;21014;-83
2021/09/19 08:57:25;;;;;;;6.53;6.03;;;;;;;15.02;77.43;99411.39;1719242;82;21037;-83
2021/09/19 08:59:54;;;;;;;6.83;6.22;;;;;;;15.09;78.20;99401.33;1717832;81;21097;-83
2021/09/19 09:02:22;;;;;;;6.53;6.03;;;;;;;15.22;77.24;99410.42;1703120;83;21397;-83
2021/09/19 09:04:55;;;;;;;5.83;5.37;;;;;;;15.29;77.11;99404.89;1702313;83;21699;-83
2021/09/19 09:07:25;;;;;;;6.50;6.00;;;;;;;15.35;77.28;99402.57;1695919;83;21031;-84
2021/09/19 09:09:57;;;;;;;6.05;5.65;;;;;;;15.39;76.92;99402.40;1701590;83;21148;-83
2021/09/19 09:12:25;;;;;;;6.85;6.42;;;;;;;15.35;77.19;99399.89;1739300;80;21105;-84
2021/09/19 09:14:55;;;;;;;5.72;5.33;;;;;;;15.35;77.83;99398.03;1744886;80;21093;-85
2021/09/19 09:17:26;;;;;;;4.72;4.42;;;;;;;15.44;76.80;99405.69;1750164;80;21623;-82
2021/09/19 09:20:03;;;;;;;6.15;4.85;;;;;;;15.51;76.70;99396.94;1747738;80;21676;-83
2021/09/19 09:22:33;;;;;;;5.70;5.20;;;;;;;15.62;76.81;99401.42;1742272;80;21993;-83
2021/09/19 09:25:14;;;;;;;5.95;5.55;;;;;;;15.73;76.72;99396.53;1719724;82;21152;-85
2021/09/19 09:27:50;;;;;;;4.40;4.10;;;;;;;15.77;75.95;99400.88;1720245;82;21070;-84
2021/09/19 09:30:22;;;;;;;4.62;4.42;;;;;;;15.84;75.41;99401.53;1720129;82;21045;-87
2021/09/19 09:33:02;;;;;;;4.62;4.33;;;;;;;15.95;74.85;99393.07;1719165;82;21097;-87
2021/09/19 09:35:41;;;;;;;5.30;5.00;;;;;;;15.98;75.08;99392.59;1734214;82;21666;-85
2021/09/19 09:38:23;;;;;;;5.85;5.45;;;;;;;15.93;74.95;99393.31;1682678;84;21046;-82
2021/09/19 09:40:56;;;;;;;4.72;4.33;;;;;;;15.90;75.64;99395.70;1717964;82;21564;-84
2021/09/19 09:43:22;;;;;;;4.78;4.47;;;;;;;15.95;75.10;99399.28;1713211;82;21600;-85
2021/09/19 09:45:51;;;;;;;5.15;4.60;;;;;;;16.01;75.20;99390.77;1729632;82;21010;-85
2021/09/19 09:48:31;;;;;;;13.28;7.08;;;;;;;16.04;75.61;99382.72;1732803;82;21054;-84
2021/09/19 09:51:04;;;;;;;13.18;6.97;;;;;;;15.96;77.19;99386.65;1714338;82;21152;-85
2021/09/19 09:53:30;;;;;;;24.02;9.43;;;;;;;16.19;75.57;99389.65;1708764;82;21110;-84
2021/09/19 09:56:00;;;;;;;26.68;9.53;;;;;;;16.19;75.57;99389.65;1722277;82;21080;-83
2021/09/19 09:58:26;;;;;;;9.85;6.55;;;;;;;16.37;74.72;99392.58;1744497;81;21608;-85
2021/09/19 10:00:54;;;;;;;;;;;;;;;16.38;73.63;99374.03;1716007;83;21019;-85
2021/09/19 10:03:21;;;;;;;16.42;7.65;;;;;;;16.36;75.80;99368.09;1747782;81;20450;-86
2021/09/19 10:05:47;;;;;;;;;;;;;;;16.36;75.80;99368.09;1751739;81;21028;-84
2021/09/19 10:08:14;;;;;;;5.28;4.78;;;;;;;16.44;74.18;99360.91;1748832;81;20454;-85
2021/09/19 10:10:43;;;;;;;15.38;6.67;;;;;;;16.57;73.80;99364.30;1748352;81;20996;-83
2021/09/19 10:13:14;;;;;;;16.52;6.60;;;;;;;16.66;72.77;99355.53;1745285;81;21048;-84
2021/09/19 10:15:43;;;;;;;7.62;5.22;;;;;;;16.66;72.77;99355.53;1741325;81;21507;-85
2021/09/19 10:18:13;;;;;;;4.55;4.05;;;;;;;16.65;72.66;99366.02;1743422;81;21759;-85
2021/09/19 10:20:48;;;;;;;3.30;3.02;;;;;;;16.70;72.63;99351.80;1729317;82;21539;-84
2021/09/19 10:23:25;;;;;;;4.22;4.03;;;;;;;16.80;71.88;99352.44;1741831;80;21066;-84
2021/09/19 10:26:12;;;;;;;4.42;4.17;;;;;;;16.88;71.71;99360.91;1735342;82;21127;-83
2021/09/19 10:28:45;;;;;;;4.08;3.83;;;;;;;16.79;71.56;99353.52;1731966;82;21035;-84
2021/09/19 10:31:23;;;;;;;3.60;3.40;;;;;;;16.66;72.70;99352.03;1725255;81;21142;-82
2021/09/19 10:34:08;;;;;;;3.58;3.33;;;;;;;16.65;72.91;99351.23;1743667;81;21126;-83
2021/09/19 10:36:50;;;;;;;3.17;3.08;;;;;;;16.74;72.61;99344.84;1734928;82;21060;-86
2021/09/19 10:39:24;;;;;;;3.42;3.15;;;;;;;16.83;72.60;99337.97;1730970;82;21052;-85
2021/09/19 10:42:26;;;;;;;4.28;3.87;;;;;;;16.91;72.48;99338.88;1743803;81;21084;-82
2021/09/19 10:45:04;;;;;;;10.53;5.95;;;;;;;16.97;71.54;99351.02;1719712;80;21031;-83
2021/09/19 10:47:41;;;;;;;6.42;3.98;;;;;;;16.84;74.09;99345.00;1675990;85;21531;-84
2021/09/19 10:50:31;;;;;;;3.95;3.60;;;;;;;16.69;76.33;99348.30;1692626;84;21254;-82
2021/09/19 10:53:18;;;;;;;3.75;3.45;;;;;;;16.54;77.13;99358.90;1696108;84;21059;-82
2021/09/19 10:55:58;;;;;;;4.72;4.17;;;;;;;16.36;78.02;99366.74;1710203;81;21054;-84
2021/09/19 10:58:28;;;;;;;5.47;3.95;;;;;;;16.33;80.65;99368.58;1735909;82;21056;-85
2021/09/19 11:01:13;;;;;;;4.62;4.22;;;;;;;16.33;80.65;99368.58;1743706;81;20977;-85
2021/09/19 11:03:45;;;;;;;3.67;3.47;;;;;;;16.40;80.44;99359.80;1746789;81;21070;-83
2021/09/19 11:06:32;;;;;;;4.30;4.00;;;;;;;16.43;79.54;99364.69;1744973;82;21044;-82
2021/09/19 11:09:21;;;;;;;4.15;3.75;;;;;;;16.44;78.96;99370.33;1743531;81;21042;-83
2021/09/19 11:12:09;;;;;;;3.47;3.37;;;;;;;16.41;78.78;99375.42;1737319;80;20981;-84
2021/09/19 11:15:00;;;;;;;1.42;1.20;;;;;;;16.42;78.54;99377.84;1742008;81;21000;-84
2021/09/19 11:17:34;;;;;;;1.52;1.27;;;;;;;16.41;76.09;99378.92;1735957;81;21042;-85
2021/09/19 11:20:17;;;;;;;0.80;0.80;;;;;;;16.41;76.09;99378.92;1739063;81;21630;-84
2021/09/19 11:23:00;;;;;;;0.70;0.60;;;;;;;16.41;75.59;99381.61;1746183;81;21095;-85
2021/09/19 11:25:28;;;;;;;1.07;0.70;;;;;;;16.20;76.30;99381.05;1739093;82;21030;-85
2021/09/19 11:27:57;;;;;;;1.65;0.57;;;;;;;16.20;76.37;99383.73;1740454;81;21582;-82
2021/09/19 11:30:28;;;;;;;0.53;0.40;;;;;;;16.20;76.37;99383.73;1730121;82;21096;-84
2021/09/19 11:32:58;;;;;;;0.20;0.20;;;;;;;16.14;75.86;99390.41;1716672;82;21136;-83
2021/09/19 11:35:24;;;;;;;;;;;;;;;16.14;75.86;99390.41;1745545;80;21565;-83
2021/09/19 11:37:58;;;;;;;0.10;0.10;;;;;;;16.06;75.10;99396.19;1743671;81;20128;-85
2021/09/19 11:40:24;;;;;;;0.75;0.40;;;;;;;16.02;74.51;99392.91;1745470;81;21116;-83
2021/09/19 11:42:58;;;;;;;0.82;0.10;;;;;;;15.98;74.73;99397.96;1735576;81;21056;-84
2021/09/19 11:45:24;;;;;;;0.10;0.10;;;;;;;15.98;74.73;99397.96;1726669;81;21018;-86